createdAt,value
2023-05-23T00:02:15.744Z,18.55
2023-05-23T00:04:43.034Z,16.02
2023-05-23T00:07:11.254Z,21.88
2023-05-23T00:09:38.139Z,22.75
2023-05-23T00:12:05.548Z,17.15
2023-05-23T00:14:33.959Z,15.85
2023-05-23T00:17:01.646Z,17.92
2023-05-23T00:19:28.672Z,12.90
2023-05-23T00:21:58.557Z,16.60
2023-05-23T00:24:25.810Z,16.05
2023-05-23T00:26:52.791Z,17.30
2023-05-23T00:29:19.842Z,17.95
2023-05-23T00:31:47.663Z,14.73
2023-05-23T00:34:19.771Z,14.65
2023-05-23T00:36:50.299Z,14.15
2023-05-23T00:39:19.793Z,14.52
2023-05-23T00:41:53.366Z,14.45
2023-05-23T00:44:22.040Z,22.15
2023-05-23T00:47:09.370Z,18.92
2023-05-23T00:49:36.244Z,21.55
2023-05-23T00:52:03.672Z,21.15
2023-05-23T00:54:31.784Z,20.02
2023-05-23T00:56:59.363Z,18.42
2023-05-23T00:59:27.365Z,21.10
2023-05-23T01:01:57.659Z,17.98
2023-05-23T01:04:26.570Z,16.20
2023-05-23T01:06:56.242Z,17.50
2023-05-23T01:09:27.192Z,22.90
2023-05-23T01:12:25.655Z,14.82
2023-05-23T01:15:06.585Z,13.57
2023-05-23T01:17:51.932Z,9.95
2023-05-23T01:20:45.108Z,10.52
2023-05-23T01:23:11.946Z,9.02
2023-05-23T01:26:26.307Z,7.00
2023-05-23T01:29:05.791Z,6.45
2023-05-23T01:31:35.699Z,7.45
2023-05-23T01:34:03.709Z,6.28
2023-05-23T01:36:37.631Z,8.23
2023-05-23T01:39:04.664Z,7.28
2023-05-23T01:41:33.996Z,6.90
2023-05-23T01:44:01.467Z,6.68
2023-05-23T01:46:31.680Z,5.70
2023-05-23T01:49:02.400Z,6.68
2023-05-23T01:51:30.579Z,5.95
2023-05-23T01:53:58.872Z,7.05
2023-05-23T01:56:27.157Z,6.28
2023-05-23T01:58:54.631Z,7.15
2023-05-23T02:01:22.291Z,5.32
2023-05-23T02:03:49.740Z,8.68
2023-05-23T02:06:16.607Z,7.40
2023-05-23T02:08:43.387Z,12.73
2023-05-23T02:11:10.671Z,9.98
2023-05-23T02:13:37.499Z,10.18
2023-05-23T02:16:04.581Z,11.38
2023-05-23T02:18:31.425Z,8.73
2023-05-23T02:20:58.391Z,9.55
2023-05-23T02:23:25.749Z,8.65
2023-05-23T02:25:52.563Z,9.60
2023-05-23T02:28:19.989Z,9.52
2023-05-23T02:30:46.789Z,12.30
2023-05-23T02:33:13.706Z,14.52
2023-05-23T02:35:42.768Z,11.48
2023-05-23T02:38:12.869Z,8.90
2023-05-23T02:40:39.606Z,12.60
2023-05-23T02:43:06.410Z,12.23
2023-05-23T02:45:33.301Z,10.38
2023-05-23T02:48:00.135Z,11.57
2023-05-23T02:50:27.484Z,12.15
2023-05-23T02:52:54.289Z,11.80
2023-05-23T02:55:21.656Z,12.48
2023-05-23T02:57:48.402Z,10.68
2023-05-23T03:00:16.169Z,13.63
2023-05-23T03:02:43.049Z,13.80
2023-05-23T03:05:09.987Z,16.08
2023-05-23T03:07:37.008Z,14.90
2023-05-23T03:10:04.150Z,10.32
2023-05-23T03:12:30.900Z,17.02
2023-05-23T03:14:57.676Z,20.70
2023-05-23T03:17:26.091Z,14.88
2023-05-23T03:19:52.954Z,15.60
2023-05-23T03:22:19.967Z,14.27
2023-05-23T03:24:46.886Z,14.57
2023-05-23T03:27:13.800Z,15.18
2023-05-23T03:29:41.041Z,20.25
2023-05-23T03:32:08.009Z,18.80
2023-05-23T03:34:36.477Z,16.48
2023-05-23T03:37:04.513Z,18.25
2023-05-23T03:39:31.419Z,15.85
2023-05-23T03:41:58.145Z,13.68
2023-05-23T03:44:25.743Z,16.65
2023-05-23T03:46:53.241Z,13.25
2023-05-23T03:49:20.073Z,13.13
2023-05-23T03:51:46.808Z,15.23
2023-05-23T03:54:13.593Z,12.75
2023-05-23T03:56:40.355Z,16.83
2023-05-23T03:59:07.145Z,15.02
2023-05-23T04:01:33.908Z,14.00
2023-05-23T04:04:00.847Z,18.00
2023-05-23T04:06:30.044Z,11.82
2023-05-23T04:08:57.616Z,14.60
2023-05-23T04:11:24.389Z,14.98
2023-05-23T04:13:52.071Z,13.90
2023-05-23T04:16:19.077Z,12.25
2023-05-23T04:18:47.207Z,11.75
2023-05-23T04:21:14.112Z,14.27
2023-05-23T04:23:40.897Z,15.25
2023-05-23T04:26:07.672Z,10.18
2023-05-23T04:28:34.797Z,9.32
2023-05-23T04:31:03.229Z,12.43
2023-05-23T04:33:30.614Z,10.45
2023-05-23T04:35:57.550Z,12.50
2023-05-23T04:38:27.715Z,9.95
2023-05-23T04:40:54.811Z,7.70
2023-05-23T04:43:21.901Z,9.60
2023-05-23T04:45:54.199Z,11.70
2023-05-23T04:48:22.686Z,15.75
2023-05-23T04:50:51.205Z,11.60
2023-05-23T04:53:18.366Z,12.05
2023-05-23T04:55:45.738Z,13.90
2023-05-23T04:58:13.035Z,12.02
2023-05-23T05:00:40.454Z,11.55
2023-05-23T05:03:09.749Z,11.15
2023-05-23T05:05:37.238Z,11.48
2023-05-23T05:08:04.123Z,15.77
2023-05-23T05:10:30.915Z,12.23
2023-05-23T05:12:57.728Z,9.27
2023-05-23T05:15:24.972Z,10.25
2023-05-23T05:17:51.848Z,9.40
2023-05-23T05:20:18.689Z,10.90
2023-05-23T05:22:46.286Z,6.93
2023-05-23T05:25:15.497Z,10.00
2023-05-23T05:27:42.988Z,9.73
2023-05-23T05:30:11.122Z,10.55
2023-05-23T05:32:37.981Z,9.18
2023-05-23T05:35:05.153Z,10.93
2023-05-23T05:37:32.009Z,13.02
2023-05-23T05:39:59.117Z,12.02
2023-05-23T05:42:26.051Z,9.48
2023-05-23T05:44:52.817Z,9.80
2023-05-23T05:47:19.623Z,10.85
2023-05-23T05:49:46.418Z,8.63
2023-05-23T05:52:13.235Z,10.98
2023-05-23T05:54:40.049Z,12.93
2023-05-23T05:57:06.861Z,14.70
2023-05-23T05:59:35.120Z,13.20
2023-05-23T06:02:02.111Z,8.52
2023-05-23T06:04:31.339Z,9.40
2023-05-23T06:06:58.195Z,10.45
2023-05-23T06:09:25.048Z,13.80
2023-05-23T06:11:51.830Z,13.57
2023-05-23T06:14:18.618Z,10.52
2023-05-23T06:16:46.222Z,9.77
2023-05-23T06:19:13.148Z,10.85
2023-05-23T06:21:40.462Z,12.93
2023-05-23T06:24:07.459Z,22.35
2023-05-23T06:26:34.304Z,11.93
2023-05-23T06:29:01.030Z,13.70
2023-05-23T06:31:27.966Z,9.55
2023-05-23T06:33:55.250Z,18.23
2023-05-23T06:36:22.015Z,11.95
2023-05-23T06:38:48.843Z,11.18
2023-05-23T06:41:15.561Z,9.27
2023-05-23T06:43:42.324Z,7.90
2023-05-23T06:46:09.113Z,12.85
2023-05-23T06:48:35.862Z,9.38
2023-05-23T06:51:02.750Z,8.82
2023-05-23T06:53:29.669Z,7.97
2023-05-23T06:55:56.473Z,7.28
2023-05-23T06:58:25.429Z,7.03
2023-05-23T07:00:52.593Z,7.53
2023-05-23T07:03:19.371Z,6.00
2023-05-23T07:05:46.477Z,9.60
2023-05-23T07:08:13.392Z,6.50
2023-05-23T07:10:42.017Z,10.98
2023-05-23T07:13:09.388Z,6.18
2023-05-23T07:15:36.320Z,7.28
2023-05-23T07:18:03.202Z,8.38
2023-05-23T07:20:30.153Z,6.68
2023-05-23T07:22:57.335Z,14.00
2023-05-23T07:25:24.115Z,7.47
2023-05-23T07:27:54.914Z,10.52
2023-05-23T07:30:22.721Z,12.40
2023-05-23T07:32:49.755Z,7.75
2023-05-23T07:35:16.986Z,6.13
2023-05-23T07:37:45.019Z,7.57
2023-05-23T07:40:12.153Z,12.18
2023-05-23T07:42:38.938Z,8.00
2023-05-23T07:45:06.781Z,5.55
2023-05-23T07:47:33.619Z,12.27
2023-05-23T07:50:02.266Z,9.23
2023-05-23T07:52:32.361Z,11.20
2023-05-23T07:55:00.375Z,9.63
2023-05-23T07:57:27.491Z,12.70
2023-05-23T07:59:54.479Z,8.90
2023-05-23T08:02:21.456Z,11.35
2023-05-23T08:04:49.989Z,10.82
2023-05-23T08:07:19.188Z,12.73
2023-05-23T08:09:46.322Z,6.88
2023-05-23T08:12:13.127Z,11.10
2023-05-23T08:14:50.843Z,6.07
2023-05-23T08:17:19.264Z,9.10
2023-05-23T08:19:46.739Z,10.85
2023-05-23T08:22:13.489Z,13.07
2023-05-23T08:24:40.484Z,6.75
2023-05-23T08:27:08.020Z,7.70
2023-05-23T08:29:35.325Z,9.75
2023-05-23T08:32:02.300Z,7.25
2023-05-23T08:34:29.413Z,7.47
2023-05-23T08:36:56.314Z,6.60
2023-05-23T08:39:23.182Z,9.20
2023-05-23T08:41:50.628Z,9.30
2023-05-23T08:44:17.566Z,8.40
2023-05-23T08:46:49.642Z,9.77
2023-05-23T08:49:18.453Z,12.63
2023-05-23T08:51:47.548Z,6.85
2023-05-23T08:54:14.499Z,9.20
2023-05-23T08:56:43.968Z,12.10
2023-05-23T08:59:12.992Z,11.77
2023-05-23T09:01:42.160Z,11.63
2023-05-23T09:04:09.683Z,8.65
2023-05-23T09:06:36.679Z,9.85
2023-05-23T09:09:04.345Z,6.30
2023-05-23T09:11:35.782Z,8.38
2023-05-23T09:14:05.109Z,7.88
2023-05-23T09:16:35.042Z,9.07
2023-05-23T09:19:12.048Z,6.75
2023-05-23T09:21:44.399Z,8.85
2023-05-23T09:24:12.364Z,10.25
2023-05-23T09:26:39.350Z,6.10
2023-05-23T09:29:07.617Z,11.80
2023-05-23T09:31:34.589Z,9.52
2023-05-23T09:34:01.604Z,7.93
2023-05-23T09:36:34.907Z,9.55
2023-05-23T09:39:10.977Z,7.60
2023-05-23T09:41:37.846Z,7.95
2023-05-23T09:44:10.768Z,7.97
2023-05-23T09:46:41.091Z,8.93
2023-05-23T09:49:18.296Z,9.32
2023-05-23T09:51:57.706Z,9.73
2023-05-23T09:54:24.771Z,8.88
2023-05-23T09:56:56.124Z,8.15
2023-05-23T09:59:26.660Z,9.70
2023-05-23T10:01:57.337Z,9.07
2023-05-23T10:04:27.001Z,5.72
2023-05-23T10:07:01.798Z,10.45
2023-05-23T10:09:35.887Z,7.18
2023-05-23T10:12:42.087Z,11.80
2023-05-23T10:15:13.271Z,4.70
2023-05-23T10:18:07.783Z,7.78
2023-05-23T10:20:36.282Z,8.13
2023-05-23T10:23:05.320Z,6.65
2023-05-23T10:25:32.396Z,5.50
2023-05-23T10:28:02.401Z,5.78
2023-05-23T10:30:31.351Z,9.40
2023-05-23T10:32:59.461Z,8.32
2023-05-23T10:35:47.553Z,6.25
2023-05-23T10:39:08.892Z,6.47
2023-05-23T10:41:54.578Z,6.03
2023-05-23T10:44:21.280Z,7.13
2023-05-23T10:47:01.601Z,9.32
2023-05-23T10:49:45.902Z,8.55
2023-05-23T10:52:17.598Z,8.50
2023-05-23T10:54:45.501Z,7.18
2023-05-23T10:57:17.040Z,10.38
2023-05-23T10:59:47.029Z,3.35
2023-05-23T11:02:16.621Z,6.65
2023-05-23T11:04:45.877Z,9.32
2023-05-23T11:07:33.061Z,9.30
2023-05-23T11:10:20.173Z,7.35
2023-05-23T11:12:46.943Z,5.15
2023-05-23T11:15:21.509Z,6.65
2023-05-23T11:17:57.224Z,6.88
2023-05-23T11:20:31.538Z,9.05
2023-05-23T11:23:03.975Z,6.72
2023-05-23T11:25:43.454Z,7.00
2023-05-23T11:28:12.947Z,7.90
2023-05-23T11:30:41.383Z,6.35
2023-05-23T11:33:13.439Z,7.65
2023-05-23T11:35:46.972Z,8.40
2023-05-23T11:38:17.432Z,7.32
2023-05-23T11:40:47.215Z,10.27
2023-05-23T11:43:18.248Z,7.93
2023-05-23T11:45:48.179Z,8.77
2023-05-23T11:48:17.819Z,7.53
2023-05-23T11:50:53.196Z,8.75
2023-05-23T11:53:25.090Z,8.20
2023-05-23T11:55:55.715Z,5.78
2023-05-23T11:58:31.632Z,7.68
2023-05-23T12:01:10.311Z,6.13
2023-05-23T12:03:49.367Z,7.47
2023-05-23T12:06:19.463Z,6.28
2023-05-23T12:08:47.783Z,6.78
2023-05-23T12:11:15.053Z,5.97
2023-05-23T12:13:43.209Z,10.55
2023-05-23T12:16:11.233Z,7.97
2023-05-23T12:18:38.509Z,6.55
2023-05-23T12:21:08.534Z,8.27
2023-05-23T12:23:36.227Z,5.00
2023-05-23T12:26:08.031Z,7.47
2023-05-23T12:28:38.384Z,8.25
2023-05-23T12:31:38.918Z,8.80
2023-05-23T12:34:06.137Z,9.10
2023-05-23T12:36:37.627Z,7.82
2023-05-23T12:39:09.345Z,7.30
2023-05-23T12:41:36.385Z,6.07
2023-05-23T12:44:04.641Z,6.13
2023-05-23T12:46:31.441Z,5.32
2023-05-23T12:48:58.354Z,8.63
2023-05-23T12:51:25.214Z,9.85
2023-05-23T12:54:01.064Z,7.88
2023-05-23T12:56:27.941Z,8.02
2023-05-23T12:58:54.852Z,6.45
2023-05-23T13:01:22.909Z,6.70
2023-05-23T13:03:49.981Z,6.35
2023-05-23T13:06:16.873Z,6.38
2023-05-23T13:08:44.042Z,7.05
2023-05-23T13:11:11.412Z,6.13
2023-05-23T13:13:39.078Z,11.50
2023-05-23T13:16:06.334Z,10.10
2023-05-23T13:18:33.170Z,8.73
2023-05-23T13:21:00.088Z,6.32
2023-05-23T13:23:26.993Z,9.35
2023-05-23T13:25:54.042Z,7.75
2023-05-23T13:28:21.022Z,6.78
2023-05-23T13:30:48.093Z,11.32
2023-05-23T13:33:15.470Z,6.25
2023-05-23T13:35:42.876Z,9.13
2023-05-23T13:38:10.139Z,6.93
2023-05-23T13:40:36.989Z,6.85
2023-05-23T13:43:03.796Z,7.55
2023-05-23T13:45:30.976Z,9.18
2023-05-23T13:47:57.914Z,8.80
2023-05-23T13:50:24.849Z,9.35
2023-05-23T13:52:51.783Z,13.48
2023-05-23T13:55:18.982Z,10.25
2023-05-23T13:57:46.225Z,5.40
2023-05-23T14:00:14.368Z,6.07
2023-05-23T14:02:41.290Z,5.05
2023-05-23T14:05:08.904Z,9.05
2023-05-23T14:07:36.616Z,6.07
2023-05-23T14:10:05.110Z,6.32
2023-05-23T14:12:31.866Z,10.90
2023-05-23T14:14:58.641Z,6.63
2023-05-23T14:17:29.664Z,10.13
2023-05-23T14:19:56.494Z,6.88
2023-05-23T14:22:23.273Z,10.18
2023-05-23T14:24:50.001Z,8.13
2023-05-23T14:27:17.801Z,6.03
2023-05-23T14:29:46.637Z,9.43
2023-05-23T14:32:13.780Z,5.57
2023-05-23T14:34:40.964Z,3.70
2023-05-23T14:37:08.025Z,5.68
2023-05-23T14:39:35.784Z,4.28
2023-05-23T14:42:02.769Z,6.78
2023-05-23T14:44:29.737Z,7.75
2023-05-23T14:46:56.579Z,7.15
2023-05-23T14:49:23.396Z,5.05
2023-05-23T14:51:51.231Z,7.72
2023-05-23T14:54:19.035Z,11.30
2023-05-23T14:56:46.085Z,7.05
2023-05-23T14:59:13.140Z,4.70
2023-05-23T15:01:40.918Z,7.30
2023-05-23T15:04:09.439Z,9.57
2023-05-23T15:06:38.685Z,7.30
2023-05-23T15:09:06.131Z,7.53
2023-05-23T15:11:34.886Z,4.05
2023-05-23T15:14:01.838Z,3.53
2023-05-23T15:16:32.667Z,6.13
2023-05-23T15:19:00.191Z,6.47
2023-05-23T15:21:27.351Z,5.28
2023-05-23T15:23:54.578Z,6.57
2023-05-23T15:26:24.489Z,4.57
2023-05-23T15:28:51.331Z,4.30
2023-05-23T15:31:19.261Z,4.38
2023-05-23T15:33:47.718Z,7.70
2023-05-23T15:36:14.660Z,3.65
2023-05-23T15:38:41.582Z,7.38
2023-05-23T15:41:08.400Z,6.55
2023-05-23T15:43:35.398Z,5.35
2023-05-23T15:46:02.472Z,3.38
2023-05-23T15:48:29.309Z,6.28
2023-05-23T15:50:56.107Z,5.80
2023-05-23T15:53:22.909Z,4.93
2023-05-23T15:55:49.676Z,5.28
2023-05-23T15:58:16.536Z,6.05
2023-05-23T16:00:43.459Z,4.25
2023-05-23T16:03:10.430Z,4.78
2023-05-23T16:05:37.295Z,4.95
2023-05-23T16:08:04.408Z,5.85
2023-05-23T16:10:31.203Z,5.07
2023-05-23T16:12:57.975Z,7.88
2023-05-23T16:15:24.804Z,7.05
2023-05-23T16:17:51.597Z,5.50
2023-05-23T16:20:18.517Z,6.30
2023-05-23T16:22:45.984Z,4.57
2023-05-23T16:25:13.209Z,6.13
2023-05-23T16:27:40.645Z,6.50
2023-05-23T16:30:08.548Z,8.18
2023-05-23T16:32:35.671Z,4.43
2023-05-23T16:35:03.242Z,6.75
2023-05-23T16:37:30.013Z,5.25
2023-05-23T16:39:56.968Z,9.30
2023-05-23T16:42:23.793Z,6.43
2023-05-23T16:44:58.150Z,7.57
2023-05-23T16:47:25.009Z,7.30
2023-05-23T16:49:51.874Z,6.43
2023-05-23T16:52:21.185Z,6.25
2023-05-23T16:54:48.025Z,7.95
2023-05-23T16:57:16.058Z,5.57
2023-05-23T16:59:42.855Z,5.63
2023-05-23T17:02:14.154Z,7.00
2023-05-23T17:04:41.509Z,4.93
2023-05-23T17:07:09.378Z,7.88
2023-05-23T17:09:36.781Z,5.05
2023-05-23T17:12:03.782Z,3.50
2023-05-23T17:14:30.919Z,5.45
2023-05-23T17:16:57.906Z,4.70
2023-05-23T17:19:25.697Z,4.18
2023-05-23T17:21:53.044Z,4.85
2023-05-23T17:24:19.916Z,8.60
2023-05-23T17:26:46.952Z,6.72
2023-05-23T17:29:14.222Z,10.90
2023-05-23T17:31:41.264Z,4.90
2023-05-23T17:34:08.280Z,5.50
2023-05-23T17:36:35.635Z,4.30
2023-05-23T17:39:04.493Z,5.45
2023-05-23T17:41:31.358Z,5.93
2023-05-23T17:43:58.328Z,4.43
2023-05-23T17:46:25.405Z,7.53
2023-05-23T17:48:52.254Z,8.30
2023-05-23T17:51:19.543Z,5.70
2023-05-23T17:53:46.464Z,6.88
2023-05-23T17:56:13.284Z,7.03
2023-05-23T17:58:42.437Z,7.32
2023-05-23T18:01:16.888Z,6.53
2023-05-23T18:03:43.891Z,3.63
2023-05-23T18:06:10.988Z,7.07
2023-05-23T18:08:37.963Z,5.25
2023-05-23T18:11:04.775Z,8.95
2023-05-23T18:13:31.669Z,6.22
2023-05-23T18:15:58.574Z,4.18
2023-05-23T18:18:26.607Z,4.80
2023-05-23T18:20:53.597Z,5.15
2023-05-23T18:23:21.250Z,4.57
2023-05-23T18:25:48.226Z,3.28
2023-05-23T18:28:15.151Z,5.20
2023-05-23T18:30:42.644Z,8.80
2023-05-23T18:33:09.766Z,6.90
2023-05-23T18:35:36.653Z,5.93
2023-05-23T18:38:03.811Z,5.90
2023-05-23T18:40:31.361Z,8.90
2023-05-23T18:42:58.169Z,8.55
2023-05-23T18:45:25.038Z,7.88
2023-05-23T18:47:51.936Z,3.30
2023-05-23T18:50:22.169Z,7.43
2023-05-23T18:52:49.625Z,7.45
2023-05-23T18:55:17.107Z,5.00
2023-05-23T18:57:44.126Z,6.50
2023-05-23T19:00:13.526Z,6.65
2023-05-23T19:02:44.538Z,5.57
2023-05-23T19:05:20.380Z,5.50
2023-05-23T19:07:50.137Z,6.93
2023-05-23T19:10:17.043Z,7.57
2023-05-23T19:12:43.850Z,4.60
2023-05-23T19:15:11.295Z,8.77
2023-05-23T19:17:38.735Z,6.80
2023-05-23T19:20:07.967Z,3.85
2023-05-23T19:22:50.197Z,7.50
2023-05-23T19:25:18.361Z,10.38
2023-05-23T19:27:45.239Z,5.78
2023-05-23T19:30:12.676Z,8.48
2023-05-23T19:32:39.742Z,8.27
2023-05-23T19:35:08.262Z,7.00
2023-05-23T19:37:35.593Z,6.20
2023-05-23T19:40:04.605Z,7.53
2023-05-23T19:42:32.008Z,3.38
2023-05-23T19:44:59.122Z,7.20
2023-05-23T19:47:27.047Z,9.02
2023-05-23T19:49:54.745Z,6.90
2023-05-23T19:52:21.607Z,8.15
2023-05-23T19:54:48.699Z,6.53
2023-05-23T19:57:15.559Z,4.57
2023-05-23T19:59:45.286Z,6.43
2023-05-23T20:02:12.090Z,5.68
2023-05-23T20:04:38.881Z,5.35
2023-05-23T20:07:06.469Z,7.25
2023-05-23T20:09:33.273Z,11.10
2023-05-23T20:12:00.136Z,8.02
2023-05-23T20:14:28.169Z,4.32
2023-05-23T20:16:56.065Z,9.55
2023-05-23T20:19:22.839Z,4.97
2023-05-23T20:21:49.930Z,4.53
2023-05-23T20:24:16.885Z,8.98
2023-05-23T20:26:43.656Z,9.88
2023-05-23T20:29:10.503Z,4.95
2023-05-23T20:31:38.372Z,5.80
2023-05-23T20:34:05.252Z,7.95
2023-05-23T20:36:33.162Z,6.00
2023-05-23T20:39:00.230Z,6.35
2023-05-23T20:41:29.329Z,7.55
2023-05-23T20:43:56.369Z,6.28
2023-05-23T20:46:23.227Z,4.82
2023-05-23T20:48:50.018Z,3.38
2023-05-23T20:51:16.922Z,4.57
2023-05-23T20:53:43.716Z,7.43
2023-05-23T20:56:10.618Z,4.72
2023-05-23T20:58:37.988Z,6.10
2023-05-23T21:01:04.986Z,7.88
2023-05-23T21:03:31.800Z,5.47
2023-05-23T21:05:58.602Z,6.57
2023-05-23T21:08:27.875Z,6.88
2023-05-23T21:10:55.046Z,7.22
2023-05-23T21:13:22.090Z,8.30
2023-05-23T21:15:49.040Z,5.82
2023-05-23T21:18:15.834Z,4.97
2023-05-23T21:20:42.897Z,6.97
2023-05-23T21:23:09.993Z,6.75
2023-05-23T21:25:36.737Z,7.28
2023-05-23T21:28:03.561Z,5.10
2023-05-23T21:30:30.541Z,7.43
2023-05-23T21:32:57.537Z,5.10
2023-05-23T21:35:24.471Z,7.53
2023-05-23T21:37:51.950Z,7.75
2023-05-23T21:40:18.821Z,12.20
2023-05-23T21:42:45.890Z,7.68
2023-05-23T21:45:12.825Z,6.80
2023-05-23T21:47:39.674Z,10.02
2023-05-23T21:50:07.471Z,7.22
2023-05-23T21:52:34.234Z,5.72
2023-05-23T21:55:01.050Z,6.35
2023-05-23T21:57:27.810Z,9.48
2023-05-23T21:59:54.610Z,5.55
2023-05-23T22:02:23.920Z,7.88
2023-05-23T22:04:52.166Z,7.20
2023-05-23T22:07:19.971Z,8.65
2023-05-23T22:09:46.750Z,8.98
2023-05-23T22:12:13.785Z,7.03
2023-05-23T22:14:40.554Z,9.40
2023-05-23T22:17:07.326Z,6.35
2023-05-23T22:19:34.192Z,11.25
2023-05-23T22:22:01.183Z,8.07
2023-05-23T22:24:29.145Z,6.25
2023-05-23T22:26:55.984Z,6.70
2023-05-23T22:29:25.295Z,6.10
2023-05-23T22:31:52.382Z,9.55
2023-05-23T22:34:19.222Z,8.63
2023-05-23T22:36:46.063Z,6.75
2023-05-23T22:39:13.720Z,7.05
2023-05-23T22:41:40.735Z,8.10
2023-05-23T22:44:07.481Z,7.43
2023-05-23T22:46:34.328Z,10.40
2023-05-23T22:49:03.556Z,7.68
2023-05-23T22:51:33.873Z,10.48
2023-05-23T22:54:01.292Z,10.85
2023-05-23T22:56:28.391Z,5.97
2023-05-23T22:58:55.566Z,6.93
2023-05-23T23:01:22.417Z,6.93
2023-05-23T23:03:49.176Z,8.15
2023-05-23T23:06:15.957Z,10.65
2023-05-23T23:08:43.303Z,8.60
2023-05-23T23:11:10.117Z,9.00
2023-05-23T23:13:36.918Z,16.98
2023-05-23T23:16:03.675Z,9.43
2023-05-23T23:18:30.801Z,9.90
2023-05-23T23:20:57.673Z,5.47
2023-05-23T23:23:24.500Z,8.75
2023-05-23T23:25:52.275Z,6.93
2023-05-23T23:28:20.614Z,8.63
2023-05-23T23:30:49.894Z,7.65
2023-05-23T23:33:18.145Z,12.05
2023-05-23T23:35:48.382Z,7.20
2023-05-23T23:38:16.431Z,7.70
2023-05-23T23:40:45.245Z,11.02
2023-05-23T23:43:13.156Z,4.90
2023-05-23T23:45:39.978Z,9.27
2023-05-23T23:48:06.806Z,10.93
2023-05-23T23:50:33.625Z,6.25
2023-05-23T23:53:00.718Z,8.07
2023-05-23T23:55:27.535Z,8.68
2023-05-23T23:57:54.424Z,6.50
